Time;durP1;ratioP1;P1;durP2;ratioP2;P2;SDS_P1;SDS_P2;PMS_P1;PMS_P2;Temp;Humidity;BMP_temperature;BMP_pressure;BME280_temperature;BME280_humidity;BME280_pressure;Samples;Min_cycle;Max_cycle;Signal;HPM_P1;HPM_P2
2022/07/10 00:00:17;;;;;;;1.80;1.25;;;18.20;74.20;;;;;;5048133;28;20323;-67
2022/07/10 00:02:43;;;;;;;0.98;0.70;;;18.20;74.30;;;;;;5049279;28;20018;-65
2022/07/10 00:05:10;;;;;;;1.45;0.50;;;18.20;74.30;;;;;;5049127;28;20124;-64
2022/07/10 00:07:36;;;;;;;1.02;0.68;;;18.10;74.40;;;;;;5049496;28;20021;-64
2022/07/10 00:10:03;;;;;;;1.13;0.47;;;18.10;74.50;;;;;;5049196;28;20360;-67
2022/07/10 00:12:29;;;;;;;1.48;0.70;;;18.00;74.70;;;;;;5048160;28;20053;-65
2022/07/10 00:14:55;;;;;;;1.75;0.63;;;17.90;74.90;;;;;;5049137;28;20201;-66
2022/07/10 00:17:20;;;;;;;1.15;0.63;;;17.80;75.20;;;;;;5049058;28;20143;-65
2022/07/10 00:19:46;;;;;;;0.98;0.80;;;17.80;75.20;;;;;;5049239;28;20029;-64
2022/07/10 00:22:12;;;;;;;1.63;0.55;;;17.80;75.00;;;;;;5045677;28;20037;-67
2022/07/10 00:24:38;;;;;;;0.60;0.60;;;17.80;75.00;;;;;;5046020;28;20025;-65
2022/07/10 00:27:04;;;;;;;1.83;0.80;;;17.80;75.20;;;;;;5045713;28;20190;-64
2022/07/10 00:29:29;;;;;;;1.40;0.50;;;17.80;75.20;;;;;;5026950;28;20390;-64
2022/07/10 00:31:55;;;;;;;1.35;0.60;;;17.70;75.30;;;;;;5045998;28;20050;-64
2022/07/10 00:34:20;;;;;;;0.63;0.55;;;17.60;75.80;;;;;;5045850;28;20018;-64
2022/07/10 00:36:46;;;;;;;1.70;0.55;;;17.50;76.10;;;;;;5045544;28;20212;-65
2022/07/10 00:39:12;;;;;;;0.73;0.70;;;17.50;76.40;;;;;;5045988;28;20092;-64
2022/07/10 00:41:38;;;;;;;2.78;0.63;;;17.40;76.60;;;;;;5045723;28;20254;-64
2022/07/10 00:44:04;;;;;;;0.70;0.70;;;17.40;76.90;;;;;;5045997;28;20029;-65
2022/07/10 00:46:31;;;;;;;0.68;0.63;;;17.40;77.00;;;;;;5045463;28;20071;-64
2022/07/10 00:48:57;;;;;;;0.70;0.70;;;17.40;77.00;;;;;;5046218;28;20076;-64
2022/07/10 00:51:27;;;;;;;0.70;0.60;;;17.40;77.20;;;;;;5045419;28;20025;-65
2022/07/10 00:53:53;;;;;;;1.58;0.60;;;17.40;77.20;;;;;;5044397;28;20300;-65
2022/07/10 00:56:22;;;;;;;1.60;0.90;;;17.50;77.50;;;;;;5045140;28;20035;-64
2022/07/10 00:58:49;;;;;;;1.08;0.60;;;17.60;77.60;;;;;;5045231;28;20057;-65
2022/07/10 01:01:16;;;;;;;0.80;0.50;;;17.50;77.90;;;;;;5045338;28;20071;-64
2022/07/10 01:03:43;;;;;;;2.28;0.70;;;17.40;78.30;;;;;;5044610;28;20063;-64
2022/07/10 01:06:09;;;;;;;0.95;0.63;;;17.40;78.90;;;;;;5045211;28;20044;-65
2022/07/10 01:08:35;;;;;;;3.33;0.85;;;17.40;79.30;;;;;;5045509;28;20088;-65
2022/07/10 01:11:02;;;;;;;1.00;0.90;;;17.30;79.80;;;;;;5044255;28;20032;-65
2022/07/10 01:13:27;;;;;;;0.73;0.57;;;17.20;80.20;;;;;;5045122;28;20025;-64
2022/07/10 01:15:54;;;;;;;4.72;0.80;;;17.20;80.50;;;;;;5044047;28;20017;-64
2022/07/10 01:18:20;;;;;;;1.08;0.82;;;17.10;80.90;;;;;;5045163;28;20308;-65
2022/07/10 01:20:45;;;;;;;0.70;0.70;;;17.10;81.10;;;;;;5045015;28;20216;-66
2022/07/10 01:23:12;;;;;;;0.98;0.77;;;17.00;81.00;;;;;;5044987;28;20036;-64
2022/07/10 01:25:37;;;;;;;1.45;1.00;;;17.00;81.20;;;;;;5045063;28;20028;-65
2022/07/10 01:28:03;;;;;;;1.65;0.85;;;16.90;81.30;;;;;;5043575;28;20018;-64
2022/07/10 01:30:29;;;;;;;0.88;0.80;;;16.90;81.50;;;;;;5043393;28;20200;-65
2022/07/10 01:32:55;;;;;;;1.10;0.82;;;16.90;81.70;;;;;;5044607;28;20029;-65
2022/07/10 01:35:21;;;;;;;0.93;0.90;;;16.80;81.90;;;;;;5044711;28;20079;-64
2022/07/10 01:37:46;;;;;;;1.23;0.95;;;16.80;82.30;;;;;;5044492;28;20084;-65
2022/07/10 01:40:12;;;;;;;0.88;0.73;;;16.80;82.30;;;;;;5043766;28;20029;-64
2022/07/10 01:42:39;;;;;;;2.70;0.80;;;16.80;82.50;;;;;;5043328;28;20026;-65
2022/07/10 01:45:09;;;;;;;1.58;1.02;;;16.80;82.70;;;;;;5044774;28;20060;-65
2022/07/10 01:47:35;;;;;;;1.00;0.93;;;16.80;82.90;;;;;;5044364;28;20029;-64
2022/07/10 01:50:01;;;;;;;0.90;0.90;;;16.80;83.30;;;;;;5044753;28;20033;-64
2022/07/10 01:52:26;;;;;;;0.98;0.90;;;16.70;83.90;;;;;;5044401;28;20056;-64
2022/07/10 01:54:52;;;;;;;1.77;0.90;;;16.70;84.20;;;;;;5044199;28;20079;-64
2022/07/10 01:57:18;;;;;;;1.52;1.42;;;16.80;84.70;;;;;;5043917;28;20052;-66
2022/07/10 01:59:44;;;;;;;1.23;1.00;;;16.70;85.00;;;;;;5076108;28;20164;-65
2022/07/10 02:02:10;;;;;;;1.00;1.00;;;16.70;85.30;;;;;;5076617;28;20017;-65
2022/07/10 02:04:43;;;;;;;1.05;0.73;;;16.70;86.20;;;;;;5044148;28;20207;-65
2022/07/10 02:07:11;;;;;;;1.17;1.08;;;16.60;86.70;;;;;;5043202;28;20047;-65
2022/07/10 02:09:39;;;;;;;1.00;0.95;;;16.50;87.30;;;;;;5044222;28;20318;-65
2022/07/10 02:12:06;;;;;;;2.65;1.10;;;16.50;87.90;;;;;;5076012;28;20193;-65
2022/07/10 02:14:32;;;;;;;1.88;1.00;;;16.50;88.20;;;;;;5043783;28;20024;-65
2022/07/10 02:16:58;;;;;;;1.10;1.00;;;16.40;89.20;;;;;;5076335;28;20025;-65
2022/07/10 02:19:23;;;;;;;0.88;0.88;;;16.30;89.80;;;;;;5043808;28;20068;-65
2022/07/10 02:21:49;;;;;;;0.98;0.98;;;16.40;90.00;;;;;;5044066;28;20025;-65
2022/07/10 02:24:15;;;;;;;1.20;1.10;;;16.30;90.40;;;;;;5043780;28;20026;-65
2022/07/10 02:26:41;;;;;;;1.05;1.00;;;16.40;90.30;;;;;;5043581;28;20033;-66
2022/07/10 02:29:06;;;;;;;2.53;1.08;;;16.40;90.40;;;;;;5043860;28;20021;-64
2022/07/10 02:31:34;;;;;;;1.10;1.00;;;16.30;90.40;;;;;;5074477;28;20025;-65
2022/07/10 02:34:00;;;;;;;1.77;0.98;;;16.30;90.70;;;;;;5043762;28;20021;-64
2022/07/10 02:36:26;;;;;;;3.63;1.00;;;16.30;90.80;;;;;;5042315;28;20043;-65
2022/07/10 02:38:52;;;;;;;2.60;1.30;;;16.30;90.90;;;;;;5042566;28;20265;-65
2022/07/10 02:41:17;;;;;;;1.25;1.17;;;16.30;91.40;;;;;;5043442;28;20055;-65
2022/07/10 02:43:43;;;;;;;1.60;0.98;;;16.30;91.50;;;;;;5043581;28;20025;-65
2022/07/10 02:46:09;;;;;;;1.00;1.00;;;16.20;91.60;;;;;;5042864;28;20236;-65
2022/07/10 02:48:34;;;;;;;1.15;1.13;;;16.20;91.60;;;;;;5043466;28;20112;-65
2022/07/10 02:51:00;;;;;;;1.25;1.10;;;16.20;91.70;;;;;;5043738;28;20028;-65
2022/07/10 02:53:26;;;;;;;3.05;1.10;;;16.20;91.90;;;;;;5043191;28;20026;-64
2022/07/10 02:55:51;;;;;;;1.95;1.23;;;16.20;91.90;;;;;;5043858;28;20197;-65
2022/07/10 02:58:17;;;;;;;1.25;1.15;;;16.20;92.00;;;;;;5042747;28;20056;-65
2022/07/10 03:00:43;;;;;;;3.05;1.40;;;16.20;92.10;;;;;;5043547;28;20025;-64
2022/07/10 03:03:09;;;;;;;1.33;1.10;;;16.30;92.10;;;;;;5043253;28;20300;-65
2022/07/10 03:05:35;;;;;;;1.20;1.10;;;16.30;92.30;;;;;;5042274;28;20032;-65
2022/07/10 03:08:00;;;;;;;2.03;1.17;;;16.20;92.60;;;;;;5043697;28;20025;-65
2022/07/10 03:10:26;;;;;;;1.52;1.33;;;16.10;92.90;;;;;;5041884;28;20029;-65
2022/07/10 03:12:52;;;;;;;1.55;1.38;;;16.10;92.80;;;;;;5042195;28;20045;-66
2022/07/10 03:15:17;;;;;;;1.75;1.40;;;16.00;93.00;;;;;;5042999;28;20025;-65
2022/07/10 03:17:44;;;;;;;1.50;1.40;;;16.00;93.30;;;;;;5043450;28;20027;-66
2022/07/10 03:20:10;;;;;;;2.45;1.33;;;15.90;93.60;;;;;;5042931;28;20072;-65
2022/07/10 03:22:36;;;;;;;1.50;1.30;;;15.80;93.70;;;;;;5042087;28;20022;-65
2022/07/10 03:25:02;;;;;;;1.85;1.15;;;15.80;93.90;;;;;;5041765;28;20025;-64
2022/07/10 03:27:28;;;;;;;2.92;1.38;;;15.80;94.00;;;;;;5042866;28;20067;-65
2022/07/10 03:29:53;;;;;;;1.30;1.20;;;15.80;94.10;;;;;;5042003;28;20017;-65
2022/07/10 03:32:19;;;;;;;1.30;1.20;;;15.80;94.10;;;;;;5041525;28;20021;-65
2022/07/10 03:34:45;;;;;;;1.50;1.40;;;15.80;94.10;;;;;;5042741;28;20021;-66
2022/07/10 03:37:10;;;;;;;2.60;1.30;;;15.80;94.10;;;;;;5042900;28;20100;-65
2022/07/10 03:39:36;;;;;;;1.50;1.40;;;15.80;94.10;;;;;;5042031;28;20033;-65
2022/07/10 03:42:01;;;;;;;1.10;1.10;;;15.70;94.10;;;;;;5042935;28;20029;-64
2022/07/10 03:44:27;;;;;;;2.13;1.55;;;15.70;94.30;;;;;;5043190;28;20025;-65
2022/07/10 03:46:53;;;;;;;1.40;1.30;;;15.70;94.30;;;;;;5043040;28;20037;-66
2022/07/10 03:49:19;;;;;;;5.90;1.50;;;15.70;94.20;;;;;;5042970;28;20323;-65
2022/07/10 03:51:44;;;;;;;1.70;1.60;;;15.70;94.20;;;;;;5043098;28;20025;-66
2022/07/10 03:54:10;;;;;;;1.80;1.70;;;15.60;94.50;;;;;;5042664;28;20048;-65
2022/07/10 03:59:21;;;;;;;1.50;1.40;;;15.40;95.00;;;;;;5045232;28;20046;-65
2022/07/10 04:01:47;;;;;;;2.20;1.80;;;15.40;95.30;;;;;;5046868;28;20212;-65
2022/07/10 04:04:12;;;;;;;1.48;1.38;;;15.40;95.40;;;;;;5046120;28;20025;-65
2022/07/10 04:06:38;;;;;;;1.73;1.63;;;15.30;95.60;;;;;;5046660;28;20041;-65
2022/07/10 04:09:05;;;;;;;2.20;1.73;;;15.30;95.60;;;;;;5046417;28;20107;-66
2022/07/10 04:11:30;;;;;;;2.55;1.80;;;15.30;95.70;;;;;;5046523;28;20056;-65
2022/07/10 04:13:56;;;;;;;1.60;1.50;;;15.20;95.80;;;;;;5046728;28;20257;-65
2022/07/10 04:16:22;;;;;;;1.85;1.75;;;15.30;95.80;;;;;;5046187;28;20029;-65
2022/07/10 04:18:48;;;;;;;1.92;1.67;;;15.30;95.80;;;;;;5046426;28;20045;-65
2022/07/10 04:21:14;;;;;;;1.60;1.50;;;15.30;95.80;;;;;;5078143;28;20029;-64
2022/07/10 04:23:40;;;;;;;2.53;1.70;;;15.30;95.80;;;;;;5046243;28;20052;-66
2022/07/10 04:26:05;;;;;;;2.10;1.90;;;15.30;95.90;;;;;;5045874;28;20048;-65
2022/07/10 04:28:31;;;;;;;2.42;2.20;;;15.30;95.90;;;;;;5061430;28;20084;-65
2022/07/10 04:30:57;;;;;;;2.53;2.05;;;15.30;95.90;;;;;;5045976;28;20029;-65
2022/07/10 04:33:23;;;;;;;3.47;1.65;;;15.30;96.00;;;;;;5044960;28;20026;-65
2022/07/10 04:35:49;;;;;;;2.03;1.83;;;15.30;96.00;;;;;;5045670;28;20029;-65
2022/07/10 04:38:14;;;;;;;1.75;1.50;;;15.40;96.10;;;;;;5044988;28;20057;-65
2022/07/10 04:40:40;;;;;;;2.35;1.73;;;15.60;96.10;;;;;;5061249;28;20033;-65
2022/07/10 04:43:06;;;;;;;1.90;1.73;;;15.80;95.80;;;;;;5044791;28;20025;-65
2022/07/10 04:45:31;;;;;;;1.67;1.58;;;16.00;95.30;;;;;;5045775;28;20033;-65
2022/07/10 04:47:57;;;;;;;1.95;1.85;;;16.30;94.70;;;;;;5045791;28;20040;-65
2022/07/10 04:50:23;;;;;;;2.08;1.67;;;16.50;94.40;;;;;;5045698;28;20024;-65
2022/07/10 04:52:48;;;;;;;1.80;1.70;;;16.80;94.10;;;;;;5045765;28;20124;-66
2022/07/10 04:55:14;;;;;;;1.70;1.60;;;17.00;93.30;;;;;;5045461;28;20052;-64
2022/07/10 04:57:44;;;;;;;1.73;1.63;;;17.00;93.00;;;;;;5045394;28;20204;-66
2022/07/10 05:00:10;;;;;;;2.42;2.00;;;17.00;93.00;;;;;;5044872;28;20156;-66
2022/07/10 05:02:36;;;;;;;1.70;1.60;;;17.10;92.90;;;;;;5045586;28;20032;-66
2022/07/10 05:05:02;;;;;;;3.22;2.45;;;17.20;92.80;;;;;;5045452;28;20236;-66
2022/07/10 05:07:28;;;;;;;2.45;2.25;;;17.10;93.10;;;;;;5044902;28;20025;-66
2022/07/10 05:09:53;;;;;;;2.10;1.90;;;17.00;93.40;;;;;;5045241;28;20125;-65
2022/07/10 05:12:19;;;;;;;2.50;2.30;;;17.30;93.10;;;;;;5045335;28;20245;-66
2022/07/10 05:14:45;;;;;;;2.20;2.00;;;17.30;92.90;;;;;;5044102;28;20033;-66
2022/07/10 05:17:10;;;;;;;2.45;2.25;;;17.40;92.70;;;;;;5045126;28;20059;-66
2022/07/10 05:19:36;;;;;;;2.58;2.33;;;17.50;92.50;;;;;;5045231;28;20029;-65
2022/07/10 05:22:02;;;;;;;3.40;2.30;;;17.50;92.50;;;;;;5044992;28;20049;-66
2022/07/10 05:24:28;;;;;;;2.50;2.30;;;17.40;92.60;;;;;;5045123;28;20332;-66
2022/07/10 05:26:53;;;;;;;2.58;2.35;;;17.30;92.70;;;;;;5043751;28;20076;-66
2022/07/10 05:29:19;;;;;;;2.63;2.50;;;17.20;92.80;;;;;;5044917;28;20025;-66
2022/07/10 05:31:45;;;;;;;3.20;2.90;;;17.00;93.20;;;;;;5044982;28;20018;-65
2022/07/10 05:34:10;;;;;;;3.67;2.92;;;16.70;93.90;;;;;;5058636;28;20059;-66
2022/07/10 05:36:36;;;;;;;3.85;3.00;;;16.50;94.40;;;;;;5044616;28;20056;-66
2022/07/10 05:39:02;;;;;;;3.75;3.45;;;16.40;94.70;;;;;;5044894;28;20021;-65
2022/07/10 05:41:28;;;;;;;4.22;3.83;;;16.20;95.10;;;;;;5044502;28;20056;-65
2022/07/10 05:43:53;;;;;;;4.13;3.70;;;16.10;95.60;;;;;;5044789;28;20029;-65
2022/07/10 05:46:19;;;;;;;4.13;3.05;;;16.10;95.70;;;;;;5044488;28;20018;-65
2022/07/10 05:48:45;;;;;;;6.38;3.55;;;16.10;95.80;;;;;;5044713;28;20080;-66
2022/07/10 05:51:11;;;;;;;6.40;4.85;;;16.20;96.00;;;;;;5060013;28;20328;-66
2022/07/10 05:53:37;;;;;;;4.57;4.13;;;16.20;95.90;;;;;;5044491;28;20021;-66
2022/07/10 05:56:03;;;;;;;4.63;4.22;;;16.20;96.00;;;;;;5044411;28;20028;-66
2022/07/10 05:58:29;;;;;;;7.05;4.97;;;16.20;96.00;;;;;;5043843;28;20021;-66
2022/07/10 06:00:55;;;;;;;6.93;5.50;;;16.20;96.10;;;;;;5044156;28;20041;-66
2022/07/10 06:03:21;;;;;;;7.22;4.95;;;16.10;96.40;;;;;;5043213;28;20044;-64
2022/07/10 06:05:47;;;;;;;6.45;5.63;;;16.10;96.50;;;;;;5044189;28;20341;-65
2022/07/10 06:08:13;;;;;;;8.93;6.40;;;16.00;96.60;;;;;;5043145;28;20021;-65
2022/07/10 06:10:40;;;;;;;10.85;8.40;;;16.10;96.80;;;;;;5044258;28;20025;-65
2022/07/10 06:13:06;;;;;;;9.98;8.50;;;16.00;97.00;;;;;;5044333;28;20200;-65
2022/07/10 06:15:32;;;;;;;9.95;8.75;;;16.00;97.30;;;;;;5044078;28;20228;-65
2022/07/10 06:17:57;;;;;;;11.25;9.40;;;16.00;97.40;;;;;;5044148;28;20022;-65
2022/07/10 06:20:25;;;;;;;12.10;9.52;;;16.00;97.40;;;;;;5042788;28;20032;-65
2022/07/10 06:22:51;;;;;;;10.07;8.75;;;16.00;97.50;;;;;;5043977;28;20051;-66
2022/07/10 06:25:16;;;;;;;11.88;9.07;;;16.10;97.50;;;;;;5043827;28;20037;-65
2022/07/10 06:27:42;;;;;;;10.05;8.75;;;16.20;97.40;;;;;;5043531;28;20017;-65
2022/07/10 06:30:08;;;;;;;9.60;8.65;;;16.30;97.20;;;;;;5043915;28;20323;-65
2022/07/10 06:32:34;;;;;;;13.13;9.77;;;16.40;97.10;;;;;;5026163;28;20032;-64
2022/07/10 06:34:59;;;;;;;11.05;9.52;;;16.40;97.10;;;;;;5041331;28;20025;-66
2022/07/10 06:37:25;;;;;;;11.73;9.80;;;16.50;97.00;;;;;;5042244;28;20029;-65
2022/07/10 06:39:51;;;;;;;11.88;9.75;;;16.50;96.90;;;;;;5043865;28;20041;-65
2022/07/10 06:42:17;;;;;;;12.65;9.50;;;16.60;96.80;;;;;;5043367;28;20026;-65
2022/07/10 06:44:43;;;;;;;11.05;9.73;;;16.60;96.90;;;;;;5043877;28;20096;-66
2022/07/10 06:49:56;;;;;;;11.15;9.25;;;16.70;96.80;;;;;;5042804;28;20029;-65
2022/07/10 06:52:22;;;;;;;11.55;10.00;;;16.70;96.80;;;;;;5043493;28;20029;-65
2022/07/10 06:54:48;;;;;;;11.95;9.18;;;16.70;96.80;;;;;;5043472;28;20017;-64
2022/07/10 06:57:14;;;;;;;9.07;8.13;;;16.70;96.70;;;;;;5042831;28;20307;-65
2022/07/10 06:59:40;;;;;;;10.63;9.20;;;16.80;96.60;;;;;;5043077;28;20095;-66
2022/07/10 07:02:07;;;;;;;10.30;9.20;;;17.00;96.50;;;;;;5043436;28;20412;-65
2022/07/10 07:04:32;;;;;;;9.88;8.68;;;17.10;96.30;;;;;;5043288;28;20026;-65
2022/07/10 07:06:58;;;;;;;10.68;9.60;;;17.10;96.20;;;;;;5043919;28;20300;-64
2022/07/10 07:09:24;;;;;;;10.77;8.55;;;17.20;95.80;;;;;;5043030;28;20056;-65
2022/07/10 07:11:49;;;;;;;10.35;8.98;;;17.30;96.00;;;;;;5043609;28;20022;-65
2022/07/10 07:14:15;;;;;;;9.05;7.82;;;17.40;95.70;;;;;;5075330;28;20025;-65
2022/07/10 07:16:42;;;;;;;9.68;8.68;;;17.50;95.60;;;;;;5043209;28;20079;-65
2022/07/10 07:19:11;;;;;;;9.27;8.32;;;17.50;95.40;;;;;;5043208;28;20104;-65
2022/07/10 07:24:22;;;;;;;8.95;7.82;;;17.70;94.80;;;;;;5041888;28;20018;-65
2022/07/10 07:26:48;;;;;;;8.80;7.78;;;17.60;94.60;;;;;;5058239;28;20036;-67
2022/07/10 07:29:16;;;;;;;9.63;7.70;;;17.70;94.70;;;;;;5075226;28;20044;-64
2022/07/10 07:31:42;;;;;;;9.68;8.68;;;17.80;94.60;;;;;;5044836;28;20022;-68
2022/07/10 07:34:08;;;;;;;9.25;8.32;;;18.00;94.30;;;;;;5045758;28;20033;-65
2022/07/10 07:36:34;;;;;;;9.73;8.13;;;17.90;94.40;;;;;;5060591;28;20021;-65
2022/07/10 07:39:00;;;;;;;9.45;8.45;;;18.00;94.40;;;;;;5046846;28;20194;-65
2022/07/10 07:41:25;;;;;;;8.35;7.50;;;18.10;94.10;;;;;;5047064;28;20025;-64
2022/07/10 07:43:52;;;;;;;9.32;7.32;;;18.10;93.90;;;;;;5046731;28;20308;-65
2022/07/10 07:46:19;;;;;;;8.43;7.63;;;18.20;94.00;;;;;;5045879;28;20081;-65
2022/07/10 07:48:44;;;;;;;8.02;7.32;;;18.20;93.90;;;;;;5061993;28;20025;-65
2022/07/10 07:51:10;;;;;;;8.98;8.00;;;18.30;93.90;;;;;;5045741;28;20029;-66
2022/07/10 07:53:36;;;;;;;8.90;8.00;;;18.20;93.70;;;;;;5046546;28;20247;-64
2022/07/10 07:56:01;;;;;;;8.93;8.02;;;18.30;93.70;;;;;;5046720;28;20121;-65
2022/07/10 07:58:27;;;;;;;9.52;8.18;;;18.30;93.60;;;;;;5045727;28;20032;-65
2022/07/10 08:00:53;;;;;;;9.20;8.30;;;18.30;93.70;;;;;;5046675;28;20030;-67
2022/07/10 08:03:19;;;;;;;8.38;7.32;;;18.40;93.70;;;;;;5046603;28;20093;-67
2022/07/10 08:05:44;;;;;;;7.85;7.03;;;18.50;93.60;;;;;;5046623;28;20021;-67
2022/07/10 08:08:10;;;;;;;8.73;7.25;;;18.60;93.50;;;;;;5046676;28;20251;-66
2022/07/10 08:10:36;;;;;;;9.65;8.07;;;18.60;93.20;;;;;;5046541;28;20308;-66
2022/07/10 08:13:03;;;;;;;7.65;6.82;;;18.70;93.20;;;;;;5045395;28;20056;-67
2022/07/10 08:15:30;;;;;;;8.50;7.53;;;18.70;93.00;;;;;;5046073;28;20029;-67
2022/07/10 08:17:57;;;;;;;9.00;8.10;;;18.80;93.10;;;;;;5045006;28;20219;-66
2022/07/10 08:20:24;;;;;;;8.73;7.65;;;18.80;93.00;;;;;;5045064;28;20036;-67
2022/07/10 08:22:52;;;;;;;8.43;6.90;;;18.80;92.90;;;;;;5046289;28;20200;-66
2022/07/10 08:25:18;;;;;;;12.73;7.20;;;18.90;92.80;;;;;;5046134;28;20048;-67
2022/07/10 08:27:44;;;;;;;9.00;7.68;;;19.10;92.50;;;;;;5045815;28;20033;-67
2022/07/10 08:30:11;;;;;;;8.70;7.88;;;19.30;92.20;;;;;;5046241;28;20025;-67
2022/07/10 08:32:38;;;;;;;8.35;7.05;;;19.40;91.90;;;;;;5046038;28;20025;-67
2022/07/10 08:35:04;;;;;;;8.75;7.63;;;19.40;91.90;;;;;;5045920;28;20263;-66
2022/07/10 08:37:36;;;;;;;8.07;7.05;;;19.50;91.90;;;;;;5044340;28;20086;-67
2022/07/10 08:40:01;;;;;;;;;;;19.50;91.60;;;;;;5046555;28;20101;-66
2022/07/10 08:42:27;;;;;;;8.65;7.53;;;19.60;91.60;;;;;;5045083;28;19901;-66
2022/07/10 08:44:53;;;;;;;7.90;7.10;;;19.70;91.50;;;;;;5045457;28;20025;-66
2022/07/10 08:47:22;;;;;;;8.32;6.35;;;19.70;91.30;;;;;;5045879;28;20049;-66
2022/07/10 08:49:48;;;;;;;8.00;6.43;;;19.80;91.00;;;;;;5045667;28;20312;-65
2022/07/10 08:52:29;;;;;;;7.65;6.85;;;19.90;90.80;;;;;;5045484;28;20252;-65
2022/07/10 08:54:56;;;;;;;6.68;5.97;;;19.90;90.90;;;;;;5045260;28;20300;-66
2022/07/10 08:57:24;;;;;;;7.97;6.57;;;19.90;90.80;;;;;;5045309;28;20083;-66
2022/07/10 08:59:49;;;;;;;8.20;5.63;;;19.90;90.40;;;;;;5045550;28;20112;-66
2022/07/10 09:02:15;;;;;;;6.25;5.65;;;20.00;90.10;;;;;;5044439;28;20036;-65
2022/07/10 09:04:41;;;;;;;6.88;5.35;;;20.10;90.20;;;;;;5045342;28;20041;-66
2022/07/10 09:07:07;;;;;;;6.80;5.72;;;20.10;90.20;;;;;;5045510;28;20075;-66
2022/07/10 09:09:53;;;;;;;5.95;5.45;;;20.20;90.00;;;;;;5045440;28;20032;-65
2022/07/10 09:12:21;;;;;;;10.25;6.18;;;20.30;89.60;;;;;;5044405;28;20029;-66
2022/07/10 09:14:46;;;;;;;7.32;6.03;;;20.40;89.30;;;;;;5045110;28;20017;-66
2022/07/10 09:17:12;;;;;;;5.75;5.25;;;20.40;89.00;;;;;;5044046;28;20257;-66
2022/07/10 09:19:39;;;;;;;5.82;5.22;;;20.50;89.30;;;;;;5045123;28;20045;-65
2022/07/10 09:22:07;;;;;;;5.75;5.25;;;20.60;88.50;;;;;;5045280;28;20040;-65
2022/07/10 09:24:38;;;;;;;7.15;5.80;;;20.80;88.00;;;;;;5043700;28;20358;-65
2022/07/10 09:27:04;;;;;;;5.95;5.40;;;21.00;87.10;;;;;;5044911;28;20075;-65
2022/07/10 09:29:31;;;;;;;8.63;5.20;;;21.10;86.60;;;;;;5044472;28;20320;-65
2022/07/10 09:31:59;;;;;;;6.07;5.47;;;21.20;86.20;;;;;;5060527;28;20035;-66
2022/07/10 09:34:41;;;;;;;5.93;5.32;;;21.40;85.90;;;;;;5044673;28;20025;-66
2022/07/10 09:37:26;;;;;;;6.90;5.57;;;21.40;85.10;;;;;;5043586;28;20021;-65
2022/07/10 09:40:00;;;;;;;5.70;5.10;;;21.40;85.10;;;;;;5060095;28;20025;-66
2022/07/10 09:42:31;;;;;;;5.57;4.53;;;21.40;85.20;;;;;;5060180;28;20056;-66
2022/07/10 09:45:16;;;;;;;5.03;4.55;;;21.50;85.10;;;;;;5059742;28;20059;-66
2022/07/10 09:47:57;;;;;;;5.53;5.03;;;21.70;84.60;;;;;;5043633;28;20025;-66
2022/07/10 09:50:38;;;;;;;5.05;4.25;;;21.80;83.60;;;;;;5060087;28;20021;-66
2022/07/10 09:53:06;;;;;;;4.10;3.80;;;22.00;82.50;;;;;;5060057;28;20029;-65
2022/07/10 09:55:34;;;;;;;4.55;3.88;;;22.20;80.80;;;;;;5042946;28;20041;-65
2022/07/10 09:58:02;;;;;;;4.38;3.97;;;22.20;80.80;;;;;;5044246;28;20021;-66
2022/07/10 10:00:30;;;;;;;4.50;4.10;;;22.40;80.80;;;;;;5042740;28;20111;-66
2022/07/10 10:02:57;;;;;;;6.65;4.90;;;22.50;80.00;;;;;;5043418;28;20264;-65
2022/07/10 10:05:31;;;;;;;5.88;4.00;;;22.60;79.70;;;;;;5043154;28;20033;-67
2022/07/10 10:08:01;;;;;;;4.78;4.38;;;22.60;80.10;;;;;;5043243;28;20025;-68
2022/07/10 10:10:28;;;;;;;4.40;4.00;;;22.60;79.40;;;;;;5044194;28;20029;-67
2022/07/10 10:12:58;;;;;;;5.63;4.40;;;22.60;78.90;;;;;;5044156;28;20064;-65
2022/07/10 10:15:25;;;;;;;4.07;3.67;;;22.70;78.90;;;;;;5044076;28;20032;-67
2022/07/10 10:17:52;;;;;;;4.50;3.40;;;22.70;77.80;;;;;;5044134;28;20083;-65
2022/07/10 10:23:05;;;;;;;4.38;3.97;;;22.90;77.00;;;;;;5043052;28;20017;-65
2022/07/10 10:25:34;;;;;;;4.35;3.45;;;23.00;76.50;;;;;;5043982;28;20041;-64
2022/07/10 10:28:03;;;;;;;4.57;3.90;;;23.00;75.60;;;;;;5026264;28;20177;-65
2022/07/10 10:30:30;;;;;;;3.85;3.03;;;22.90;75.50;;;;;;5042710;28;20021;-66
2022/07/10 10:32:55;;;;;;;4.65;2.92;;;22.90;75.60;;;;;;5059568;28;20029;-65
2022/07/10 10:35:42;;;;;;;4.20;2.55;;;22.90;75.50;;;;;;5043646;28;20017;-66
2022/07/10 10:38:07;;;;;;;2.50;2.03;;;23.20;74.50;;;;;;5054824;28;20033;-66
2022/07/10 10:40:34;;;;;;;2.50;2.30;;;23.40;72.10;;;;;;5043656;28;20101;-65
2022/07/10 10:43:23;;;;;;;3.83;2.38;;;23.50;72.00;;;;;;5043829;28;20029;-66
2022/07/10 10:45:50;;;;;;;3.08;2.78;;;23.60;71.80;;;;;;5042504;28;20100;-66
2022/07/10 10:48:17;;;;;;;2.58;2.38;;;23.70;72.60;;;;;;5059330;28;20033;-65
2022/07/10 10:50:58;;;;;;;3.80;2.38;;;23.80;71.40;;;;;;5043673;28;20029;-66
2022/07/10 10:53:28;;;;;;;2.83;2.17;;;23.90;70.80;;;;;;5042387;28;20060;-66
2022/07/10 10:56:21;;;;;;;2.20;2.00;;;24.00;71.80;;;;;;5042491;28;20067;-66
2022/07/10 10:58:46;;;;;;;2.22;1.83;;;24.00;69.70;;;;;;5042119;28;20114;-67
2022/07/10 11:01:32;;;;;;;2.10;2.00;;;24.00;69.60;;;;;;5042173;28;20029;-66
2022/07/10 11:04:15;;;;;;;2.35;1.80;;;24.10;69.30;;;;;;5042365;28;20280;-66
2022/07/10 11:06:56;;;;;;;1.85;1.48;;;24.10;68.10;;;;;;5042403;28;20325;-66
2022/07/10 11:09:28;;;;;;;1.63;1.52;;;24.30;66.70;;;;;;5043611;28;20032;-66
2022/07/10 11:12:12;;;;;;;1.70;1.60;;;24.40;67.90;;;;;;5042245;28;20304;-65
2022/07/10 11:14:40;;;;;;;2.35;2.15;;;24.60;65.80;;;;;;5043168;28;20032;-66
2022/07/10 11:17:06;;;;;;;2.20;2.00;;;24.70;68.30;;;;;;5043277;28;20021;-66
2022/07/10 11:19:33;;;;;;;2.20;2.00;;;24.70;67.20;;;;;;5042070;28;20034;-66
2022/07/10 11:22:27;;;;;;;2.00;1.80;;;24.70;68.70;;;;;;5042233;28;20025;-66
2022/07/10 11:25:30;;;;;;;2.15;1.85;;;24.90;68.30;;;;;;5028527;28;20331;-66
2022/07/10 11:28:08;;;;;;;2.10;2.00;;;25.10;67.30;;;;;;5042102;28;20088;-66
2022/07/10 11:30:54;;;;;;;2.00;1.80;;;25.20;66.50;;;;;;5030447;28;20084;-66
2022/07/10 11:33:21;;;;;;;3.67;2.10;;;25.40;67.00;;;;;;5022329;28;20042;-66
2022/07/10 11:35:50;;;;;;;2.38;2.17;;;25.50;67.30;;;;;;5022293;28;20030;-67
2022/07/10 11:38:22;;;;;;;3.47;2.50;;;25.70;67.20;;;;;;5023124;28;20018;-67
2022/07/10 11:40:49;;;;;;;3.97;2.20;;;25.70;67.50;;;;;;5021524;28;20037;-66
2022/07/10 11:43:17;;;;;;;3.47;2.17;;;25.80;67.90;;;;;;5023214;28;20093;-67
2022/07/10 11:45:43;;;;;;;3.38;3.10;;;25.90;68.40;;;;;;5022280;28;20080;-67
2022/07/10 11:48:17;;;;;;;5.65;3.33;;;25.90;68.20;;;;;;5022121;28;20029;-66
2022/07/10 11:50:44;;;;;;;3.13;2.90;;;25.60;67.50;;;;;;5022226;28;20037;-66
2022/07/10 11:53:09;;;;;;;5.97;3.17;;;25.40;67.80;;;;;;5023135;28;20076;-66
2022/07/10 11:55:40;;;;;;;4.10;2.90;;;25.30;67.80;;;;;;5042788;28;20235;-66
2022/07/10 11:58:22;;;;;;;3.35;3.00;;;25.30;68.10;;;;;;5042434;28;20017;-66
2022/07/10 12:01:06;;;;;;;3.20;2.78;;;25.40;67.30;;;;;;5041790;28;20113;-68
2022/07/10 12:03:32;;;;;;;2.72;2.53;;;25.60;66.80;;;;;;5041751;28;20083;-67
2022/07/10 12:06:03;;;;;;;3.30;2.50;;;25.60;65.20;;;;;;5042806;28;20107;-66
2022/07/10 12:08:29;;;;;;;3.75;2.40;;;25.60;65.00;;;;;;5042661;28;20099;-66
2022/07/10 12:10:55;;;;;;;4.13;2.72;;;25.60;65.60;;;;;;5043027;28;20033;-67
2022/07/10 12:13:21;;;;;;;2.17;2.08;;;25.60;65.50;;;;;;5042503;28;20029;-67
2022/07/10 12:15:47;;;;;;;3.08;2.38;;;25.60;62.50;;;;;;5042796;28;20040;-65
2022/07/10 12:18:18;;;;;;;4.07;2.88;;;25.70;63.60;;;;;;5045036;28;20084;-66
2022/07/10 12:20:47;;;;;;;2.75;2.55;;;25.80;65.20;;;;;;5046170;28;20036;-66
2022/07/10 12:23:16;;;;;;;3.47;2.50;;;25.90;65.70;;;;;;5046261;28;20031;-65
2022/07/10 12:25:43;;;;;;;2.65;2.45;;;26.00;63.70;;;;;;5045964;28;20304;-65
2022/07/10 12:28:09;;;;;;;2.38;2.28;;;26.00;63.40;;;;;;5045932;28;20044;-66
2022/07/10 12:30:41;;;;;;;4.15;2.53;;;26.20;63.90;;;;;;5046043;28;20029;-65
2022/07/10 12:33:17;;;;;;;2.42;2.22;;;26.40;62.70;;;;;;5046252;28;20029;-66
2022/07/10 12:35:51;;;;;;;2.45;2.20;;;26.60;61.30;;;;;;5044957;28;20048;-65
2022/07/10 12:38:19;;;;;;;4.15;1.95;;;26.60;59.40;;;;;;5045737;28;20327;-65
2022/07/10 12:40:44;;;;;;;4.80;1.60;;;26.60;59.20;;;;;;5044190;28;20064;-67
2022/07/10 12:43:11;;;;;;;2.30;2.20;;;26.70;58.90;;;;;;5044755;28;20051;-67
2022/07/10 12:45:38;;;;;;;2.83;2.10;;;26.80;58.60;;;;;;5044669;28;20024;-66
2022/07/10 12:48:06;;;;;;;2.03;1.92;;;26.90;59.00;;;;;;5045835;28;20313;-66
2022/07/10 12:50:32;;;;;;;2.15;2.05;;;27.00;58.50;;;;;;5044823;28;20024;-69
2022/07/10 12:53:14;;;;;;;3.15;1.90;;;27.10;58.60;;;;;;5045586;28;20033;-66
2022/07/10 12:55:41;;;;;;;2.25;2.10;;;27.20;57.20;;;;;;5025954;28;20026;-66
2022/07/10 12:58:09;;;;;;;2.58;2.38;;;27.30;57.20;;;;;;5025428;28;20022;-65